• Join FlightAware (Why Join?)
  • Login
  • US Flag GB Flag 
14:24 EDT


 

Airport Tracker/Info


-or-


 

Live Flight TrackerFlight Track Log ✈ AAL297 ✈ 28-Apr-2013 ✈ KDFW - KLAX

Flight Track Log - Related Links

Times and Time Zones

All times are in EDT time to prevent confusion due to time zone crossing. See the AAL297 flight status page for this flight to view local times or setup timezone preferences in your user account.

Time Position Orientation Groundspeed Altitude Reporting Facility
EDT Latitude Longitude Course Direction KTS MPH feet Rate Location/Type
17:51 32.8452 -98.9257 267° West  Level FlightAware Approximate
17:51 32.8580 -98.5250 267° West 452 520 36,000  Level FlightAware
17:51 32.8570 -98.6230 269° West 446 513 36,000  Level FlightAware
17:52 32.8560 -98.7210 269° West 447 514 36,000  Level FlightAware
17:53 32.8540 -98.8190 269° West 448 516 36,000  Level FlightAware
17:53 32.8530 -98.9160 269° West 449 517 36,000 480 Level FlightAware
17:54 32.8560 -99.0560 271° West 448 516 36,800 1,260 Climbing FlightAware
17:55 32.8800 -99.1480 287° West 445 512 38,000 1,680 Climbing FlightAware
17:56 32.9100 -99.2490 290° West 440 506 39,200 1,320 Climbing FlightAware
17:56 32.9390 -99.3420 290° West 443 510 39,900 540 Climbing FlightAware
17:57 32.9710 -99.4460 290° West 442 509 40,000 60 Climbing FlightAware
17:58 32.9990 -99.5370 290° West 441 507 40,000  Level FlightAware
17:58 33.0260 -99.6250 290° West 440 506 40,000  Level FlightAware
17:59 33.0630 -99.7630 288° West 441 507 40,000  Level FlightAware
18:00 33.0850 -99.8550 286° West 441 507 40,000  Level FlightAware
18:01 33.1040 -99.9340 286° West 441 507 40,000  Level FlightAware
18:01 33.1230 -100.0140 286° West 441 507 40,000  Level FlightAware
18:02 33.1420 -100.0940 286° West 441 507 40,000  Level FlightAware
18:03 33.1610 -100.1730 286° West 441 507 40,000  Level FlightAware
18:04 33.1850 -100.2730 286° West 441 507 40,000  Level FlightAware
18:04 33.2040 -100.3530 286° West 441 507 40,000  Level FlightAware
18:05 33.2230 -100.4320 286° West 441 507 40,000  Level FlightAware
18:06 33.2430 -100.5120 287° West 441 507 40,000  Level FlightAware
18:06 33.2620 -100.5920 286° West 441 507 40,000  Level FlightAware
18:07 33.2860 -100.6920 286° West 441 507 40,000  Level FlightAware
18:08 33.3050 -100.7710 286° West 441 507 40,000  Level FlightAware
18:08 33.3240 -100.8510 286° West 441 507 40,000  Level FlightAware
18:09 33.3430 -100.9310 286° West 441 507 40,000  Level FlightAware
18:09 33.4325 -101.1669 286° West 438 504 40,000  Level Fort Worth Center
18:10 33.4658 -101.3078 286° West 444 511 40,000  Level Fort Worth Center
18:11 33.5008 -101.4514 286° West 438 504 40,000  Level Fort Worth Center
18:12 33.5297 -101.5922 284° West 438 504 40,000  Level Fort Worth Center
18:13 33.5664 -101.7408 287° West 445 512 40,000  Level Fort Worth Center
18:14 33.5969 -101.8797 285° West 445 512 40,000  Level Fort Worth Center
18:15 33.6247 -102.0306 283° West 440 506 40,000  Level Fort Worth Center
18:16 33.6536 -102.1544 286° West 440 506 40,000  Level Fort Worth Center
18:17 33.6892 -102.3111 285° West 440 506 40,000  Level Fort Worth Center
18:20 33.7553 -102.6114 285° West 445 512 40,000  Level Albuquerque Center
18:21 33.7856 -102.7544 284° West 444 511 40,000  Level Albuquerque Center
18:22 33.8164 -102.9003 284° West 447 514 40,000  Level Albuquerque Center
18:23 33.8536 -103.0706 285° West 443 510 40,000  Level Albuquerque Center
18:24 33.8831 -103.2142 284° West 443 510 40,000  Level Albuquerque Center
18:25 33.9133 -103.3597 284° West 447 514 40,000  Level Albuquerque Center
18:26 33.9422 -103.5061 283° West 450 518 40,000  Level Albuquerque Center
18:28 34.0050 -103.8231 284° West 451 519 40,000  Level Albuquerque Center
18:29 34.0353 -103.9714 284° West 452 520 40,000  Level Albuquerque Center
18:30 34.0658 -104.1189 284° West 449 517 40,000  Level Albuquerque Center
18:31 34.0958 -104.2686 284° West 452 520 40,000  Level Albuquerque Center
18:32 34.1250 -104.4172 283° West 451 519 40,000  Level Albuquerque Center
18:33 34.1533 -104.5658 283° West 450 518 40,000  Level Albuquerque Center
18:34 34.1833 -104.7122 284° West 445 512 40,000  Level Albuquerque Center
18:35 34.2119 -104.8614 283° West 449 517 40,000  Level Albuquerque Center
18:36 34.2400 -105.0100 283° West 449 517 40,000  Level Albuquerque Center
18:37 34.2731 -105.1822 283° West 448 516 40,000  Level Albuquerque Center
18:38 34.3019 -105.3303 283° West 447 514 40,000  Level Albuquerque Center
18:39 34.3169 -105.4789 277° West 442 509 40,000  Level Albuquerque Center
18:40 34.3214 -105.6294 272° West 443 510 40,000  Level Albuquerque Center
18:41 34.3281 -105.7783 273° West 441 507 40,000  Level Albuquerque Center
18:42 34.3289 -105.9289 270° West 443 510 40,000  Level Albuquerque Center
18:43 34.3319 -106.0789 271° West 442 509 40,000  Level Albuquerque Center
18:44 34.3350 -106.2417 271° West 443 510 40,000  Level Albuquerque Center
18:45 34.3364 -106.3922 271° West 447 514 40,000  Level Albuquerque Center
18:46 34.3392 -106.5408 271° West 443 510 40,000  Level Albuquerque Center
18:47 34.3414 -106.6908 271° West 443 510 40,000  Level Albuquerque Center
18:48 34.3419 -106.8400 270° West 442 509 40,000  Level Albuquerque Center
18:49 34.3444 -106.9925 271° West 449 517 40,000  Level Albuquerque Center
18:51 34.3447 -107.1447 270° West 450 518 40,000  Level Albuquerque Center
18:52 34.3464 -107.2939 271° West 445 512 40,000  Level Albuquerque Center
18:53 34.3472 -107.4458 270° West 449 517 40,000  Level Albuquerque Center
18:54 34.3483 -107.6264 270° West 447 514 40,000  Level Albuquerque Center
18:55 34.3497 -107.7778 271° West 449 517 40,000  Level Albuquerque Center
18:56 34.3492 -107.9286 270° West 448 516 40,000  Level Albuquerque Center
18:57 34.3494 -108.0789 270° West 447 514 40,000  Level Albuquerque Center
18:58 34.3500 -108.2300 270° West 447 514 40,000  Level Albuquerque Center
18:59 34.3492 -108.3825 270° West 451 519 40,000  Level Albuquerque Center
19:00 34.3503 -108.5439 271° West 450 518 40,000  Level Albuquerque Center
19:01 34.3494 -108.7117 270° West 447 514 40,000  Level Albuquerque Center
19:02 34.3481 -108.8569 269° West 449 517 40,000  Level Albuquerque Center
19:03 34.3478 -109.0031 270° West 450 518 40,000  Level Albuquerque Center
19:04 34.3467 -109.1750 270° West 453 521 40,000  Level Albuquerque Center
19:05 34.3447 -109.3208 269° West 454 522 40,000  Level Albuquerque Center
19:06 34.3442 -109.4906 270° West 453 521 40,000  Level Albuquerque Center
19:07 34.3419 -109.6358 269° West 450 518 40,000  Level Albuquerque Center
19:08 34.3411 -109.7828 270° West 453 521 40,000  Level Albuquerque Center
19:09 34.3383 -109.9528 269° West 453 521 40,000  Level Albuquerque Center
19:10 34.3356 -110.0967 269° West 450 518 40,000  Level Albuquerque Center
19:11 34.3325 -110.2667 269° West 450 518 40,000  Level Albuquerque Center
19:12 34.3308 -110.4089 269° West 453 521 40,000  Level Albuquerque Center
19:13 34.3286 -110.5622 269° West 457 526 40,000  Level Albuquerque Center
19:14 34.3261 -110.7114 269° West 450 518 40,000  Level Albuquerque Center
19:15 34.3194 -110.8611 267° West 449 517 40,000  Level Albuquerque Center
19:16 34.3158 -111.0417 269° West 450 518 40,000  Level Albuquerque Center
19:17 34.3119 -111.1914 268° West 449 517 40,000  Level Albuquerque Center
19:18 34.3081 -111.3422 268° West 450 518 40,000  Level Albuquerque Center
19:19 34.3036 -111.4925 268° West 451 519 40,000  Level Albuquerque Center
19:20 34.2992 -111.6411 268° West 449 517 40,000  Level Albuquerque Center
19:21 34.2964 -111.7892 269° West 448 516 40,000  Level Albuquerque Center
19:22 34.2900 -111.9675 268° West 448 516 40,000  Level Albuquerque Center
19:23 34.2853 -112.1167 268° West 449 517 40,000  Level Albuquerque Center
19:24 34.2806 -112.2667 268° West 449 517 40,000  Level Albuquerque Center
19:25 34.2753 -112.4153 268° West 448 516 40,000  Level Albuquerque Center
19:26 34.2692 -112.5664 267° West 450 518 40,000  Level Albuquerque Center
19:27 34.2636 -112.7158 267° West 448 516 40,000  Level Albuquerque Center
19:28 34.2572 -112.8961 268° West 449 517 40,000  Level Albuquerque Center
19:30 34.2775 -113.0439 279° West 447 514 40,000  Level Albuquerque Center
19:31 34.2931 -113.1917 277° West 446 513 40,000  Level Albuquerque Center
19:32 34.2833 -113.3417 266° West 450 518 40,000  Level Albuquerque Center
19:33 34.2753 -113.4922 266° West 447 514 40,000  Level Albuquerque Center
19:34 34.2625 -113.6592 265° West 448 516 40,000  Level Albuquerque Center
19:35 34.2525 -113.8094 265° West 448 516 40,000  Level Albuquerque Center
19:36 34.2428 -113.9592 266° West 447 514 40,000  Level Albuquerque Center
19:37 34.2325 -114.1081 265° West 445 512 40,000  Level Albuquerque Center
19:38 34.2228 -114.2583 266° West 446 513 40,000  Level Albuquerque Center
19:39 34.2139 -114.4092 266° West 448 516 40,000  Level Albuquerque Center
19:39 34.2108 -114.4806 267° West 448 516 40,000 -120 Level Los Angeles Center
19:40 34.1975 -114.6564 265° West 439 505 39,900 -540 Descending Los Angeles Center
19:41 34.1872 -114.8056 265° West 445 512 39,000 -1,140 Descending Los Angeles Center
19:42 34.1764 -114.9581 265° West 453 521 37,600 -1,380 Descending Los Angeles Center
19:43 34.1639 -115.1103 264° West 458 527 36,200 -1,260 Descending Los Angeles Center
19:44 34.1522 -115.2689 265° West 474 545 35,000 -1,200 Descending Los Angeles Center
19:45 34.1378 -115.4628 265° West 485 558 33,800 -1,080 Descending Los Angeles Center
19:47 34.1247 -115.6192 264° West 474 545 32,800 -1,020 Descending Los Angeles Center
19:48 34.1128 -115.7708 265° West 459 528 31,800 -1,020 Descending Los Angeles Center
19:49 34.0922 -115.9147 260° West 443 510 30,800 -840 Descending Los Angeles Center
19:50 34.0694 -116.0567 259° West 435 501 30,100 -900 Descending Los Angeles Center
19:51 34.0486 -116.1972 260° West 430 495 29,000 -1,200 Descending Los Angeles Center
19:52 34.0244 -116.3644 260° West 424 488 27,700 -1,020 Descending Los Angeles Center
19:53 34.0042 -116.5028 260° West 423 487 26,900 -360 Descending Los Angeles Center
19:54 33.9925 -116.6417 264° West 420 483 27,000 -480 Climbing Los Angeles Center
19:55 33.9814 -116.7814 265° West 422 486 26,000 -2,580 Descending Los Angeles Center
19:56 33.9667 -116.9500 264° West 385 443 21,500 -3,720 Descending Southern California TRACON
19:57 33.9500 -117.0833 261° West 380 437 17,800 -2,220 Descending Southern California TRACON
19:58 33.9500 -117.2167 270° West 370 426 16,900 -1,500 Descending Southern California TRACON
19:59 33.9333 -117.3333 260° West 365 420 14,900 -1,500 Descending Southern California TRACON
20:00 33.9333 -117.4500 270° West 360 414 14,000 -900 Descending Southern California TRACON
20:01 33.9833 -117.5500 301° West 341 392 13,200 -1,680 Descending Southern California TRACON
20:02 34.0167 -117.6500 292° West 390 449 10,700 -1,980 Descending Southern California TRACON
20:03 34.0167 -117.7500 270° West 281 323 9,300 -1,140 Descending Southern California TRACON
20:04 34.0167 -117.8333 270° West 285 328 8,600 -1,140 Descending Southern California TRACON
20:05 34.0000 -117.9167 256° West 273 314 7,200 -1,320 Descending Southern California TRACON
20:06 34.0000 -118.0167 270° West 259 298 6,000 -1,140 Descending Southern California TRACON
20:07 33.9833 -118.1000 256° West 223 257 4,900 -900 Descending Southern California TRACON
20:08 33.9833 -118.1500 270° West 213 245 4,200 -780 Descending Southern California TRACON
20:08 33.9772 -118.1678 247° West 219 252 4,000 -720 Descending Los Angeles Center